Agua Caliente, California
Current Conditions -  °F | °C
As of 7:10 AM on Thursday 30 Oct 2014 (Local Time) from KO69 Reporting Station
Clear Clear  
Wind Chill: 50°   Ceiling: Unl
Heat Index: 50°   Visibility: 10mi
Dew Point: 48°   Wind: 0mph
Humidity: 94%   Direction: NA
Pressure: 29.96"   Gusts: NA
Location:  38.257°N, 122.459°W
Report Text: KO69 301410Z AUTO 00000KT 10SM CLR 10/09 A2996 RMK AO1
Loading
Personal Weather Stations






























Interactive Weather Map
Tropical Storm Tracking
New forecast layout! Learn more

10-Day Weather Forecast

Advertisements
Track Severe Weather on mobile